sensor_id;sensor_type;location;lat;lon;timestamp;temperature;humidity
43520;DHT22;46848;51.980;5.918;2023-07-31T00:01:31;17.80;79.60
43520;DHT22;46848;51.980;5.918;2023-07-31T00:03:57;17.80;79.70
43520;DHT22;46848;51.980;5.918;2023-07-31T00:06:22;17.80;79.80
43520;DHT22;46848;51.980;5.918;2023-07-31T00:08:48;17.80;79.80
43520;DHT22;46848;51.980;5.918;2023-07-31T00:11:13;17.80;79.80
43520;DHT22;46848;51.980;5.918;2023-07-31T00:13:39;17.90;79.90
43520;DHT22;46848;51.980;5.918;2023-07-31T00:16:04;17.90;80.00
43520;DHT22;46848;51.980;5.918;2023-07-31T00:18:30;17.80;80.20
43520;DHT22;46848;51.980;5.918;2023-07-31T00:20:55;17.80;80.60
43520;DHT22;46848;51.980;5.918;2023-07-31T00:23:21;17.90;80.70
43520;DHT22;46848;51.980;5.918;2023-07-31T00:25:46;17.80;80.70
43520;DHT22;46848;51.980;5.918;2023-07-31T00:28:12;17.90;80.80
43520;DHT22;46848;51.980;5.918;2023-07-31T00:30:38;17.80;80.70
43520;DHT22;46848;51.980;5.918;2023-07-31T00:33:03;17.80;81.50
43520;DHT22;46848;51.980;5.918;2023-07-31T00:35:29;17.80;81.50
43520;DHT22;46848;51.980;5.918;2023-07-31T00:37:55;17.80;81.40
43520;DHT22;46848;51.980;5.918;2023-07-31T00:40:21;17.80;81.40
43520;DHT22;46848;51.980;5.918;2023-07-31T00:42:47;17.80;81.20
43520;DHT22;46848;51.980;5.918;2023-07-31T00:45:12;17.80;80.80
43520;DHT22;46848;51.980;5.918;2023-07-31T00:47:38;17.80;80.50
43520;DHT22;46848;51.980;5.918;2023-07-31T00:50:04;17.80;80.50
43520;DHT22;46848;51.980;5.918;2023-07-31T00:52:30;17.80;80.60
43520;DHT22;46848;51.980;5.918;2023-07-31T00:54:55;17.90;80.70
43520;DHT22;46848;51.980;5.918;2023-07-31T00:57:21;17.90;80.60
43520;DHT22;46848;51.980;5.918;2023-07-31T00:59:46;17.90;81.00
43520;DHT22;46848;51.980;5.918;2023-07-31T01:02:12;17.90;80.60
43520;DHT22;46848;51.980;5.918;2023-07-31T01:04:38;17.90;80.30
43520;DHT22;46848;51.980;5.918;2023-07-31T01:07:13;17.90;80.80
43520;DHT22;46848;51.980;5.918;2023-07-31T01:09:52;18.00;81.30
43520;DHT22;46848;51.980;5.918;2023-07-31T01:12:23;18.00;81.40
43520;DHT22;46848;51.980;5.918;2023-07-31T01:15:06;18.00;81.30
43520;DHT22;46848;51.980;5.918;2023-07-31T01:17:36;18.00;81.40
43520;DHT22;46848;51.980;5.918;2023-07-31T01:20:04;18.00;81.30
43520;DHT22;46848;51.980;5.918;2023-07-31T01:28:14;18.10;81.50
43520;DHT22;46848;51.980;5.918;2023-07-31T01:30:45;18.10;81.70
43520;DHT22;46848;51.980;5.918;2023-07-31T01:33:15;18.20;81.80
43520;DHT22;46848;51.980;5.918;2023-07-31T01:35:44;18.20;81.70
43520;DHT22;46848;51.980;5.918;2023-07-31T01:38:10;18.20;80.90
43520;DHT22;46848;51.980;5.918;2023-07-31T01:40:36;18.20;81.10
43520;DHT22;46848;51.980;5.918;2023-07-31T01:43:02;18.20;80.90
43520;DHT22;46848;51.980;5.918;2023-07-31T01:45:27;18.20;81.00
43520;DHT22;46848;51.980;5.918;2023-07-31T01:47:53;18.20;81.60
43520;DHT22;46848;51.980;5.918;2023-07-31T01:50:18;18.20;81.60
43520;DHT22;46848;51.980;5.918;2023-07-31T01:52:44;18.20;81.50
43520;DHT22;46848;51.980;5.918;2023-07-31T01:55:09;18.20;81.30
43520;DHT22;46848;51.980;5.918;2023-07-31T01:57:36;18.20;81.50
43520;DHT22;46848;51.980;5.918;2023-07-31T02:00:02;18.20;81.20
43520;DHT22;46848;51.980;5.918;2023-07-31T02:02:28;18.20;81.00
43520;DHT22;46848;51.980;5.918;2023-07-31T02:04:54;18.30;80.70
43520;DHT22;46848;51.980;5.918;2023-07-31T02:07:19;18.30;80.90
43520;DHT22;46848;51.980;5.918;2023-07-31T02:09:45;18.20;80.90
43520;DHT22;46848;51.980;5.918;2023-07-31T02:12:12;18.30;80.50
43520;DHT22;46848;51.980;5.918;2023-07-31T02:14:39;18.20;80.80
43520;DHT22;46848;51.980;5.918;2023-07-31T02:17:05;18.20;81.10
43520;DHT22;46848;51.980;5.918;2023-07-31T02:19:31;18.30;81.70
43520;DHT22;46848;51.980;5.918;2023-07-31T02:21:57;18.30;81.30
43520;DHT22;46848;51.980;5.918;2023-07-31T02:24:23;18.30;81.50
43520;DHT22;46848;51.980;5.918;2023-07-31T02:26:49;18.20;81.50
43520;DHT22;46848;51.980;5.918;2023-07-31T02:29:15;18.20;81.70
43520;DHT22;46848;51.980;5.918;2023-07-31T02:31:40;18.30;81.80
43520;DHT22;46848;51.980;5.918;2023-07-31T02:34:06;18.40;82.30
43520;DHT22;46848;51.980;5.918;2023-07-31T02:36:32;18.30;82.40
43520;DHT22;46848;51.980;5.918;2023-07-31T02:38:57;18.30;82.50
43520;DHT22;46848;51.980;5.918;2023-07-31T02:41:23;18.30;82.50
43520;DHT22;46848;51.980;5.918;2023-07-31T02:43:48;18.30;82.80
43520;DHT22;46848;51.980;5.918;2023-07-31T02:46:14;18.30;82.90
43520;DHT22;46848;51.980;5.918;2023-07-31T02:48:39;18.40;83.10
43520;DHT22;46848;51.980;5.918;2023-07-31T02:51:05;18.30;83.50
43520;DHT22;46848;51.980;5.918;2023-07-31T02:53:30;18.30;83.10
43520;DHT22;46848;51.980;5.918;2023-07-31T02:55:56;18.40;83.20
43520;DHT22;46848;51.980;5.918;2023-07-31T02:58:21;18.40;83.20
43520;DHT22;46848;51.980;5.918;2023-07-31T03:00:47;18.30;83.30
43520;DHT22;46848;51.980;5.918;2023-07-31T03:03:13;18.40;83.50
43520;DHT22;46848;51.980;5.918;2023-07-31T03:05:38;18.40;83.50
43520;DHT22;46848;51.980;5.918;2023-07-31T03:08:04;18.40;83.60
43520;DHT22;46848;51.980;5.918;2023-07-31T03:10:29;18.30;83.70
43520;DHT22;46848;51.980;5.918;2023-07-31T03:12:55;18.40;82.70
43520;DHT22;46848;51.980;5.918;2023-07-31T03:15:20;18.40;82.60
43520;DHT22;46848;51.980;5.918;2023-07-31T03:17:46;18.40;82.30
43520;DHT22;46848;51.980;5.918;2023-07-31T03:20:12;18.30;82.10
43520;DHT22;46848;51.980;5.918;2023-07-31T03:22:37;18.40;81.40
43520;DHT22;46848;51.980;5.918;2023-07-31T03:25:04;18.40;81.10
43520;DHT22;46848;51.980;5.918;2023-07-31T03:27:29;18.30;81.10
43520;DHT22;46848;51.980;5.918;2023-07-31T03:29:55;18.30;80.40
43520;DHT22;46848;51.980;5.918;2023-07-31T03:32:21;18.30;80.10
43520;DHT22;46848;51.980;5.918;2023-07-31T03:34:46;18.30;80.20
43520;DHT22;46848;51.980;5.918;2023-07-31T03:37:12;18.20;79.60
43520;DHT22;46848;51.980;5.918;2023-07-31T03:39:37;18.20;79.80
43520;DHT22;46848;51.980;5.918;2023-07-31T03:42:03;18.30;80.10
43520;DHT22;46848;51.980;5.918;2023-07-31T03:44:29;18.30;80.20
43520;DHT22;46848;51.980;5.918;2023-07-31T03:46:54;18.20;80.00
43520;DHT22;46848;51.980;5.918;2023-07-31T03:49:20;18.30;79.90
43520;DHT22;46848;51.980;5.918;2023-07-31T03:51:46;18.20;80.00
43520;DHT22;46848;51.980;5.918;2023-07-31T03:54:11;18.20;80.00
43520;DHT22;46848;51.980;5.918;2023-07-31T03:56:38;18.20;79.60
43520;DHT22;46848;51.980;5.918;2023-07-31T03:59:04;18.20;79.70
43520;DHT22;46848;51.980;5.918;2023-07-31T04:01:29;18.20;79.80
43520;DHT22;46848;51.980;5.918;2023-07-31T04:03:55;18.20;80.20
43520;DHT22;46848;51.980;5.918;2023-07-31T04:06:20;18.20;80.50
43520;DHT22;46848;51.980;5.918;2023-07-31T04:08:46;18.20;80.10
43520;DHT22;46848;51.980;5.918;2023-07-31T04:11:12;18.20;79.80
43520;DHT22;46848;51.980;5.918;2023-07-31T04:13:38;18.20;79.50
43520;DHT22;46848;51.980;5.918;2023-07-31T04:16:03;18.20;79.20
43520;DHT22;46848;51.980;5.918;2023-07-31T04:18:29;18.20;79.20
43520;DHT22;46848;51.980;5.918;2023-07-31T04:20:56;18.20;79.40
43520;DHT22;46848;51.980;5.918;2023-07-31T04:23:24;18.20;79.40
43520;DHT22;46848;51.980;5.918;2023-07-31T04:25:50;18.20;79.50
43520;DHT22;46848;51.980;5.918;2023-07-31T04:28:15;18.20;79.10
43520;DHT22;46848;51.980;5.918;2023-07-31T04:30:41;18.20;79.40
43520;DHT22;46848;51.980;5.918;2023-07-31T04:33:06;18.20;79.10
43520;DHT22;46848;51.980;5.918;2023-07-31T04:35:32;18.20;78.50
43520;DHT22;46848;51.980;5.918;2023-07-31T04:37:58;18.20;78.60
43520;DHT22;46848;51.980;5.918;2023-07-31T04:40:23;18.20;78.30
43520;DHT22;46848;51.980;5.918;2023-07-31T04:42:49;18.20;78.70
43520;DHT22;46848;51.980;5.918;2023-07-31T04:45:14;18.20;78.70
43520;DHT22;46848;51.980;5.918;2023-07-31T04:47:40;18.20;78.80
43520;DHT22;46848;51.980;5.918;2023-07-31T04:50:06;18.20;78.30
43520;DHT22;46848;51.980;5.918;2023-07-31T04:52:32;18.20;78.40
43520;DHT22;46848;51.980;5.918;2023-07-31T04:54:57;18.20;78.60
43520;DHT22;46848;51.980;5.918;2023-07-31T04:57:23;18.20;78.50
43520;DHT22;46848;51.980;5.918;2023-07-31T04:59:48;18.20;78.80
43520;DHT22;46848;51.980;5.918;2023-07-31T05:02:14;18.20;78.70
43520;DHT22;46848;51.980;5.918;2023-07-31T05:04:39;18.20;78.50
43520;DHT22;46848;51.980;5.918;2023-07-31T05:07:05;18.20;78.50
43520;DHT22;46848;51.980;5.918;2023-07-31T05:09:31;18.20;78.60
43520;DHT22;46848;51.980;5.918;2023-07-31T05:11:56;18.20;78.40
43520;DHT22;46848;51.980;5.918;2023-07-31T05:14:22;18.20;78.60
43520;DHT22;46848;51.980;5.918;2023-07-31T05:16:48;18.20;78.60
43520;DHT22;46848;51.980;5.918;2023-07-31T05:19:13;18.20;78.70
43520;DHT22;46848;51.980;5.918;2023-07-31T05:21:39;18.20;78.20
43520;DHT22;46848;51.980;5.918;2023-07-31T05:24:05;18.20;78.40
43520;DHT22;46848;51.980;5.918;2023-07-31T05:26:31;18.20;78.50
43520;DHT22;46848;51.980;5.918;2023-07-31T05:28:56;18.20;78.50
43520;DHT22;46848;51.980;5.918;2023-07-31T05:31:23;18.20;78.20
43520;DHT22;46848;51.980;5.918;2023-07-31T05:33:50;18.20;78.40
43520;DHT22;46848;51.980;5.918;2023-07-31T05:36:16;18.20;78.60
43520;DHT22;46848;51.980;5.918;2023-07-31T05:38:42;18.20;77.80
43520;DHT22;46848;51.980;5.918;2023-07-31T05:41:09;18.10;77.70
43520;DHT22;46848;51.980;5.918;2023-07-31T05:43:35;18.10;78.70
43520;DHT22;46848;51.980;5.918;2023-07-31T05:46:00;18.00;78.30
43520;DHT22;46848;51.980;5.918;2023-07-31T05:48:26;18.10;78.70
43520;DHT22;46848;51.980;5.918;2023-07-31T05:50:52;18.00;79.20
43520;DHT22;46848;51.980;5.918;2023-07-31T05:53:18;18.00;79.10
43520;DHT22;46848;51.980;5.918;2023-07-31T05:55:43;18.00;79.40
43520;DHT22;46848;51.980;5.918;2023-07-31T05:58:09;18.00;79.70
43520;DHT22;46848;51.980;5.918;2023-07-31T06:00:35;18.00;79.40
43520;DHT22;46848;51.980;5.918;2023-07-31T06:03:00;18.00;79.90
43520;DHT22;46848;51.980;5.918;2023-07-31T06:05:26;17.90;79.20
43520;DHT22;46848;51.980;5.918;2023-07-31T06:07:53;17.90;79.40
43520;DHT22;46848;51.980;5.918;2023-07-31T06:10:19;17.90;79.70
43520;DHT22;46848;51.980;5.918;2023-07-31T06:12:44;17.90;80.00
43520;DHT22;46848;51.980;5.918;2023-07-31T06:15:10;17.90;80.70
43520;DHT22;46848;51.980;5.918;2023-07-31T06:17:36;17.80;80.00
43520;DHT22;46848;51.980;5.918;2023-07-31T06:20:02;17.90;80.30
43520;DHT22;46848;51.980;5.918;2023-07-31T06:22:30;17.90;80.90
43520;DHT22;46848;51.980;5.918;2023-07-31T06:24:56;17.90;81.10
43520;DHT22;46848;51.980;5.918;2023-07-31T06:27:21;17.90;81.90
43520;DHT22;46848;51.980;5.918;2023-07-31T06:29:47;17.90;81.40
43520;DHT22;46848;51.980;5.918;2023-07-31T06:32:13;17.90;81.40
43520;DHT22;46848;51.980;5.918;2023-07-31T06:34:39;18.00;81.00
43520;DHT22;46848;51.980;5.918;2023-07-31T06:37:05;18.00;81.20
43520;DHT22;46848;51.980;5.918;2023-07-31T06:39:30;18.00;81.10
43520;DHT22;46848;51.980;5.918;2023-07-31T06:41:56;18.00;81.10
43520;DHT22;46848;51.980;5.918;2023-07-31T06:44:21;18.00;81.40
43520;DHT22;46848;51.980;5.918;2023-07-31T06:46:47;18.00;81.30
43520;DHT22;46848;51.980;5.918;2023-07-31T06:49:12;18.00;81.30
43520;DHT22;46848;51.980;5.918;2023-07-31T06:51:40;18.10;81.00
43520;DHT22;46848;51.980;5.918;2023-07-31T06:54:06;18.10;81.10
43520;DHT22;46848;51.980;5.918;2023-07-31T06:56:31;18.10;81.60
43520;DHT22;46848;51.980;5.918;2023-07-31T06:58:57;18.10;82.20
43520;DHT22;46848;51.980;5.918;2023-07-31T07:01:22;18.20;82.20
43520;DHT22;46848;51.980;5.918;2023-07-31T07:03:48;18.20;82.20
43520;DHT22;46848;51.980;5.918;2023-07-31T07:06:16;18.20;82.20
43520;DHT22;46848;51.980;5.918;2023-07-31T07:08:42;18.20;81.60
43520;DHT22;46848;51.980;5.918;2023-07-31T07:11:08;18.20;81.40
43520;DHT22;46848;51.980;5.918;2023-07-31T07:13:33;18.20;81.10
43520;DHT22;46848;51.980;5.918;2023-07-31T07:15:59;18.20;81.30
43520;DHT22;46848;51.980;5.918;2023-07-31T07:18:25;18.20;81.60
43520;DHT22;46848;51.980;5.918;2023-07-31T07:20:52;18.20;81.30
43520;DHT22;46848;51.980;5.918;2023-07-31T07:23:18;18.20;81.40
43520;DHT22;46848;51.980;5.918;2023-07-31T07:25:46;18.30;81.50
43520;DHT22;46848;51.980;5.918;2023-07-31T07:28:11;18.30;81.70
43520;DHT22;46848;51.980;5.918;2023-07-31T07:30:37;18.30;81.60
43520;DHT22;46848;51.980;5.918;2023-07-31T07:33:03;18.40;81.50
43520;DHT22;46848;51.980;5.918;2023-07-31T07:35:29;18.40;82.20
43520;DHT22;46848;51.980;5.918;2023-07-31T07:37:54;18.40;82.00
43520;DHT22;46848;51.980;5.918;2023-07-31T07:40:21;18.40;81.60
43520;DHT22;46848;51.980;5.918;2023-07-31T07:42:46;18.40;81.40
43520;DHT22;46848;51.980;5.918;2023-07-31T07:45:12;18.50;81.70
43520;DHT22;46848;51.980;5.918;2023-07-31T07:47:41;18.50;81.60
43520;DHT22;46848;51.980;5.918;2023-07-31T07:50:08;18.50;82.10
43520;DHT22;46848;51.980;5.918;2023-07-31T07:52:33;18.50;82.20
43520;DHT22;46848;51.980;5.918;2023-07-31T07:54:59;18.50;81.70
43520;DHT22;46848;51.980;5.918;2023-07-31T07:57:25;18.50;82.00
43520;DHT22;46848;51.980;5.918;2023-07-31T07:59:51;18.50;82.10
43520;DHT22;46848;51.980;5.918;2023-07-31T08:02:17;18.50;82.00
43520;DHT22;46848;51.980;5.918;2023-07-31T08:04:42;18.50;81.90
43520;DHT22;46848;51.980;5.918;2023-07-31T08:07:10;18.50;81.30
43520;DHT22;46848;51.980;5.918;2023-07-31T08:09:36;18.50;81.50
43520;DHT22;46848;51.980;5.918;2023-07-31T08:12:01;18.50;81.30
43520;DHT22;46848;51.980;5.918;2023-07-31T08:14:28;18.50;82.00
43520;DHT22;46848;51.980;5.918;2023-07-31T08:16:54;18.50;82.80
43520;DHT22;46848;51.980;5.918;2023-07-31T08:19:19;18.50;83.20
43520;DHT22;46848;51.980;5.918;2023-07-31T08:21:45;18.40;82.70
43520;DHT22;46848;51.980;5.918;2023-07-31T08:24:11;18.50;82.50
43520;DHT22;46848;51.980;5.918;2023-07-31T08:26:36;18.50;83.20
43520;DHT22;46848;51.980;5.918;2023-07-31T08:29:02;18.50;83.00
43520;DHT22;46848;51.980;5.918;2023-07-31T08:31:27;18.50;82.90
43520;DHT22;46848;51.980;5.918;2023-07-31T08:33:55;18.50;83.00
43520;DHT22;46848;51.980;5.918;2023-07-31T08:36:20;18.50;82.90
43520;DHT22;46848;51.980;5.918;2023-07-31T08:38:46;18.50;82.90
43520;DHT22;46848;51.980;5.918;2023-07-31T08:41:12;18.60;82.80
43520;DHT22;46848;51.980;5.918;2023-07-31T08:43:39;18.60;82.80
43520;DHT22;46848;51.980;5.918;2023-07-31T08:46:05;18.60;83.10
43520;DHT22;46848;51.980;5.918;2023-07-31T08:48:31;18.60;83.00
43520;DHT22;46848;51.980;5.918;2023-07-31T08:50:57;18.60;82.80
43520;DHT22;46848;51.980;5.918;2023-07-31T08:53:23;18.60;82.60
43520;DHT22;46848;51.980;5.918;2023-07-31T08:55:49;18.60;83.00
43520;DHT22;46848;51.980;5.918;2023-07-31T08:58:15;18.60;82.50
43520;DHT22;46848;51.980;5.918;2023-07-31T09:00:41;18.70;82.80
43520;DHT22;46848;51.980;5.918;2023-07-31T09:03:16;18.70;82.60
43520;DHT22;46848;51.980;5.918;2023-07-31T09:05:44;18.70;82.40
43520;DHT22;46848;51.980;5.918;2023-07-31T09:08:11;18.70;82.60
43520;DHT22;46848;51.980;5.918;2023-07-31T09:10:44;18.80;83.10
43520;DHT22;46848;51.980;5.918;2023-07-31T09:13:15;18.80;83.30
43520;DHT22;46848;51.980;5.918;2023-07-31T09:15:44;18.80;83.20
43520;DHT22;46848;51.980;5.918;2023-07-31T09:18:10;18.70;83.20
43520;DHT22;46848;51.980;5.918;2023-07-31T09:20:36;18.80;83.30
43520;DHT22;46848;51.980;5.918;2023-07-31T09:23:09;18.80;83.20
43520;DHT22;46848;51.980;5.918;2023-07-31T09:25:36;18.80;83.20
43520;DHT22;46848;51.980;5.918;2023-07-31T09:28:04;18.70;83.20
43520;DHT22;46848;51.980;5.918;2023-07-31T09:30:30;18.70;83.00
43520;DHT22;46848;51.980;5.918;2023-07-31T09:33:04;18.80;83.60
43520;DHT22;46848;51.980;5.918;2023-07-31T09:35:35;18.80;83.60
43520;DHT22;46848;51.980;5.918;2023-07-31T09:38:04;18.80;83.90
43520;DHT22;46848;51.980;5.918;2023-07-31T09:40:32;18.80;83.40
43520;DHT22;46848;51.980;5.918;2023-07-31T09:43:07;18.80;83.60
43520;DHT22;46848;51.980;5.918;2023-07-31T09:45:40;18.80;84.80
43520;DHT22;46848;51.980;5.918;2023-07-31T09:48:17;18.80;84.10
43520;DHT22;46848;51.980;5.918;2023-07-31T09:50:45;18.80;84.20
43520;DHT22;46848;51.980;5.918;2023-07-31T09:53:11;18.80;85.20
43520;DHT22;46848;51.980;5.918;2023-07-31T09:55:37;18.80;84.30
43520;DHT22;46848;51.980;5.918;2023-07-31T09:58:05;18.80;84.30
43520;DHT22;46848;51.980;5.918;2023-07-31T10:00:31;18.80;84.60
43520;DHT22;46848;51.980;5.918;2023-07-31T10:03:04;18.80;84.30
43520;DHT22;46848;51.980;5.918;2023-07-31T10:05:38;18.80;84.10
43520;DHT22;46848;51.980;5.918;2023-07-31T10:08:07;18.90;83.90
43520;DHT22;46848;51.980;5.918;2023-07-31T10:10:35;18.90;84.00
43520;DHT22;46848;51.980;5.918;2023-07-31T10:13:02;19.00;83.80
43520;DHT22;46848;51.980;5.918;2023-07-31T10:15:28;19.00;83.90
43520;DHT22;46848;51.980;5.918;2023-07-31T10:17:55;19.00;84.10
43520;DHT22;46848;51.980;5.918;2023-07-31T10:20:21;19.00;85.30
43520;DHT22;46848;51.980;5.918;2023-07-31T10:22:48;19.00;84.50
43520;DHT22;46848;51.980;5.918;2023-07-31T10:25:15;19.00;84.30
43520;DHT22;46848;51.980;5.918;2023-07-31T10:27:42;19.00;84.20
43520;DHT22;46848;51.980;5.918;2023-07-31T10:30:14;19.10;84.20
43520;DHT22;46848;51.980;5.918;2023-07-31T10:32:41;19.10;83.80
43520;DHT22;46848;51.980;5.918;2023-07-31T10:35:08;19.20;84.40
43520;DHT22;46848;51.980;5.918;2023-07-31T10:37:40;19.20;84.10
43520;DHT22;46848;51.980;5.918;2023-07-31T10:40:19;19.20;84.20
43520;DHT22;46848;51.980;5.918;2023-07-31T10:45:24;19.20;85.00
43520;DHT22;46848;51.980;5.918;2023-07-31T10:48:05;19.30;84.10
43520;DHT22;46848;51.980;5.918;2023-07-31T10:50:33;19.30;84.50
43520;DHT22;46848;51.980;5.918;2023-07-31T10:53:01;19.30;83.80
43520;DHT22;46848;51.980;5.918;2023-07-31T10:55:43;19.40;84.20
43520;DHT22;46848;51.980;5.918;2023-07-31T10:58:13;19.40;83.60
43520;DHT22;46848;51.980;5.918;2023-07-31T11:00:42;19.50;83.40
43520;DHT22;46848;51.980;5.918;2023-07-31T11:06:20;19.60;84.50
43520;DHT22;46848;51.980;5.918;2023-07-31T11:08:43;19.60;84.10
43520;DHT22;46848;51.980;5.918;2023-07-31T11:11:19;19.60;84.10
43520;DHT22;46848;51.980;5.918;2023-07-31T11:13:52;19.60;83.60
43520;DHT22;46848;51.980;5.918;2023-07-31T11:16:21;19.60;83.60
43520;DHT22;46848;51.980;5.918;2023-07-31T11:18:47;19.60;83.70
43520;DHT22;46848;51.980;5.918;2023-07-31T11:21:21;19.60;84.00
43520;DHT22;46848;51.980;5.918;2023-07-31T11:23:51;19.60;84.10
43520;DHT22;46848;51.980;5.918;2023-07-31T11:26:18;19.60;83.70
43520;DHT22;46848;51.980;5.918;2023-07-31T11:28:46;19.60;83.60
43520;DHT22;46848;51.980;5.918;2023-07-31T11:31:12;19.70;83.80
43520;DHT22;46848;51.980;5.918;2023-07-31T11:33:38;19.60;83.80
43520;DHT22;46848;51.980;5.918;2023-07-31T11:36:03;19.60;84.00
43520;DHT22;46848;51.980;5.918;2023-07-31T11:38:33;19.60;83.90
43520;DHT22;46848;51.980;5.918;2023-07-31T11:41:01;19.60;83.60
43520;DHT22;46848;51.980;5.918;2023-07-31T11:43:31;19.60;83.50
43520;DHT22;46848;51.980;5.918;2023-07-31T11:45:58;19.60;84.20
43520;DHT22;46848;51.980;5.918;2023-07-31T11:48:29;19.70;84.20
43520;DHT22;46848;51.980;5.918;2023-07-31T11:51:05;19.70;83.80
43520;DHT22;46848;51.980;5.918;2023-07-31T11:53:44;19.80;83.90
43520;DHT22;46848;51.980;5.918;2023-07-31T11:56:13;19.80;84.10
43520;DHT22;46848;51.980;5.918;2023-07-31T11:58:41;19.80;83.80
43520;DHT22;46848;51.980;5.918;2023-07-31T12:01:09;19.80;83.80
43520;DHT22;46848;51.980;5.918;2023-07-31T12:03:35;19.80;83.70
43520;DHT22;46848;51.980;5.918;2023-07-31T12:06:01;19.80;83.50
43520;DHT22;46848;51.980;5.918;2023-07-31T12:08:27;19.80;84.10
43520;DHT22;46848;51.980;5.918;2023-07-31T12:10:54;19.90;83.90
43520;DHT22;46848;51.980;5.918;2023-07-31T12:13:24;19.90;83.70
43520;DHT22;46848;51.980;5.918;2023-07-31T12:15:54;19.90;83.70
43520;DHT22;46848;51.980;5.918;2023-07-31T12:18:22;19.90;83.60
43520;DHT22;46848;51.980;5.918;2023-07-31T12:20:59;20.00;84.10
43520;DHT22;46848;51.980;5.918;2023-07-31T12:23:29;20.00;83.80
43520;DHT22;46848;51.980;5.918;2023-07-31T12:26:11;20.00;83.50
43520;DHT22;46848;51.980;5.918;2023-07-31T12:28:45;20.00;83.60
43520;DHT22;46848;51.980;5.918;2023-07-31T12:31:16;20.00;82.90
43520;DHT22;46848;51.980;5.918;2023-07-31T12:33:46;20.10;83.90
43520;DHT22;46848;51.980;5.918;2023-07-31T12:36:14;20.00;83.60
43520;DHT22;46848;51.980;5.918;2023-07-31T12:38:41;20.00;83.50
43520;DHT22;46848;51.980;5.918;2023-07-31T12:41:07;20.10;83.80
43520;DHT22;46848;51.980;5.918;2023-07-31T12:43:36;20.00;83.20
43520;DHT22;46848;51.980;5.918;2023-07-31T12:46:02;20.00;83.10
43520;DHT22;46848;51.980;5.918;2023-07-31T12:48:29;20.00;83.30
43520;DHT22;46848;51.980;5.918;2023-07-31T12:50:54;20.00;83.20
43520;DHT22;46848;51.980;5.918;2023-07-31T12:53:20;19.90;83.90
43520;DHT22;46848;51.980;5.918;2023-07-31T12:55:46;19.90;83.60
43520;DHT22;46848;51.980;5.918;2023-07-31T12:58:12;19.90;84.10
43520;DHT22;46848;51.980;5.918;2023-07-31T13:00:37;19.90;84.00
43520;DHT22;46848;51.980;5.918;2023-07-31T13:03:03;19.80;84.10
43520;DHT22;46848;51.980;5.918;2023-07-31T13:05:29;19.80;84.10
43520;DHT22;46848;51.980;5.918;2023-07-31T13:07:55;19.80;84.20
43520;DHT22;46848;51.980;5.918;2023-07-31T13:10:22;19.80;84.10
43520;DHT22;46848;51.980;5.918;2023-07-31T13:12:48;19.80;84.30
43520;DHT22;46848;51.980;5.918;2023-07-31T13:15:14;19.80;84.10
43520;DHT22;46848;51.980;5.918;2023-07-31T13:17:40;19.90;83.90
43520;DHT22;46848;51.980;5.918;2023-07-31T13:20:06;19.90;84.10
43520;DHT22;46848;51.980;5.918;2023-07-31T13:22:32;19.90;84.00
43520;DHT22;46848;51.980;5.918;2023-07-31T13:24:57;20.00;83.80
43520;DHT22;46848;51.980;5.918;2023-07-31T13:27:23;20.00;83.70
43520;DHT22;46848;51.980;5.918;2023-07-31T13:29:50;20.00;83.70
43520;DHT22;46848;51.980;5.918;2023-07-31T13:32:16;20.00;83.80
43520;DHT22;46848;51.980;5.918;2023-07-31T13:34:43;20.00;84.00
43520;DHT22;46848;51.980;5.918;2023-07-31T13:37:09;20.10;84.10
43520;DHT22;46848;51.980;5.918;2023-07-31T13:39:34;20.10;83.70
43520;DHT22;46848;51.980;5.918;2023-07-31T13:42:01;20.10;83.90
43520;DHT22;46848;51.980;5.918;2023-07-31T13:44:27;20.10;83.60
43520;DHT22;46848;51.980;5.918;2023-07-31T13:46:53;20.10;83.30
43520;DHT22;46848;51.980;5.918;2023-07-31T13:49:18;20.10;82.80
43520;DHT22;46848;51.980;5.918;2023-07-31T13:51:46;20.10;82.60
43520;DHT22;46848;51.980;5.918;2023-07-31T13:54:21;20.10;82.90
43520;DHT22;46848;51.980;5.918;2023-07-31T13:56:47;20.10;83.00
43520;DHT22;46848;51.980;5.918;2023-07-31T13:59:12;20.10;83.00
43520;DHT22;46848;51.980;5.918;2023-07-31T14:01:40;20.20;83.10
43520;DHT22;46848;51.980;5.918;2023-07-31T14:04:05;20.20;83.30
43520;DHT22;46848;51.980;5.918;2023-07-31T14:06:31;20.20;83.60
43520;DHT22;46848;51.980;5.918;2023-07-31T14:08:57;20.20;83.30
43520;DHT22;46848;51.980;5.918;2023-07-31T14:11:23;20.20;83.40
43520;DHT22;46848;51.980;5.918;2023-07-31T14:13:50;20.20;83.50
43520;DHT22;46848;51.980;5.918;2023-07-31T14:16:15;20.20;83.40
43520;DHT22;46848;51.980;5.918;2023-07-31T14:18:41;20.20;83.20
43520;DHT22;46848;51.980;5.918;2023-07-31T14:21:07;20.20;83.60
43520;DHT22;46848;51.980;5.918;2023-07-31T14:23:33;20.10;84.10
43520;DHT22;46848;51.980;5.918;2023-07-31T14:25:59;20.10;83.70
43520;DHT22;46848;51.980;5.918;2023-07-31T14:28:24;20.10;83.80
43520;DHT22;46848;51.980;5.918;2023-07-31T14:30:50;20.10;83.80
43520;DHT22;46848;51.980;5.918;2023-07-31T14:33:15;20.10;83.50
43520;DHT22;46848;51.980;5.918;2023-07-31T14:35:41;20.10;83.40
43520;DHT22;46848;51.980;5.918;2023-07-31T14:38:07;20.10;83.80
43520;DHT22;46848;51.980;5.918;2023-07-31T14:40:32;20.10;83.80
43520;DHT22;46848;51.980;5.918;2023-07-31T14:42:58;20.10;84.00
43520;DHT22;46848;51.980;5.918;2023-07-31T14:45:23;20.10;84.30
43520;DHT22;46848;51.980;5.918;2023-07-31T14:47:49;20.10;84.40
43520;DHT22;46848;51.980;5.918;2023-07-31T14:50:15;20.00;84.10
43520;DHT22;46848;51.980;5.918;2023-07-31T14:52:40;20.00;84.00
43520;DHT22;46848;51.980;5.918;2023-07-31T14:55:06;20.00;84.20
43520;DHT22;46848;51.980;5.918;2023-07-31T14:57:33;20.00;84.40
43520;DHT22;46848;51.980;5.918;2023-07-31T14:59:59;20.00;84.40
43520;DHT22;46848;51.980;5.918;2023-07-31T15:02:25;20.00;84.70
43520;DHT22;46848;51.980;5.918;2023-07-31T15:04:51;19.90;84.40
43520;DHT22;46848;51.980;5.918;2023-07-31T15:07:17;19.90;84.40
43520;DHT22;46848;51.980;5.918;2023-07-31T15:09:43;19.90;84.30
43520;DHT22;46848;51.980;5.918;2023-07-31T15:12:08;19.90;84.60
43520;DHT22;46848;51.980;5.918;2023-07-31T15:14:34;19.90;84.50
43520;DHT22;46848;51.980;5.918;2023-07-31T15:17:00;19.80;85.00
43520;DHT22;46848;51.980;5.918;2023-07-31T15:19:25;19.90;84.60
43520;DHT22;46848;51.980;5.918;2023-07-31T15:21:51;19.90;84.60
43520;DHT22;46848;51.980;5.918;2023-07-31T15:24:17;19.90;84.40
43520;DHT22;46848;51.980;5.918;2023-07-31T15:26:43;19.90;85.10
43520;DHT22;46848;51.980;5.918;2023-07-31T15:29:09;19.90;84.70
43520;DHT22;46848;51.980;5.918;2023-07-31T15:31:39;19.90;84.90
43520;DHT22;46848;51.980;5.918;2023-07-31T15:34:05;19.90;84.60
43520;DHT22;46848;51.980;5.918;2023-07-31T15:36:31;19.90;85.00
43520;DHT22;46848;51.980;5.918;2023-07-31T15:38:57;19.90;84.60